Busch, Arkansas
Current Conditions -  °F | °C
As of 11:57 PM on Wednesday 22 Oct 2014 (Local Time) from KROG Reporting Station
Clear Clear  
Wind Chill: 56°   Ceiling: Unl
Heat Index: 56°   Visibility: 10mi
Dew Point: 51°   Wind: 7mph
Humidity: 84%   Direction: 120°ESE
Pressure: 30.18"   Gusts: NA
Location:  36.4778°N, 93.7346°W
Report Text: KROG 230457Z AUTO 12006KT 10SM CLR 13/11 A3018 RMK AO2 SLP212 T01330106 402280111
Loading
Personal Weather Stations






























Interactive Weather Map
Tropical Storm Tracking
New forecast layout! Learn more

10-Day Weather Forecast

Advertisements
Track Severe Weather on mobile